Time;durP1;ratioP1;P1;durP2;ratioP2;P2;SDS_P1;SDS_P2;PMS_P1;PMS_P2;Temp;Humidity;BMP_temperature;BMP_pressure;BME280_temperature;BME280_humidity;BME280_pressure;Samples;Min_cycle;Max_cycle;Signal;HPM_P1;HPM_P2
2022/12/18 00:00:56;;;;;;;;;;;;;;;14.14;62.25;102868.88;2097600;28;19935;-59
2022/12/18 00:01:59;;;;;;;;;;;;;;;14.15;60.86;102869.66;2097948;28;20339;-59
2022/12/18 00:03:02;;;;;;;;;;;;;;;14.14;62.79;102857.19;2096903;28;19932;-58
2022/12/18 00:04:06;;;;;;;;;;;;;;;14.14;63.18;102855.28;2097377;28;19928;-60
2022/12/18 00:05:09;;;;;;;;;;;;;;;14.14;63.47;102854.47;2096675;28;19932;-59
2022/12/18 00:06:11;;;;;;;;;;;;;;;14.13;63.26;102852.88;2096910;28;19971;-62
2022/12/18 00:07:14;;;;;;;;;;;;;;;14.11;62.25;102847.75;2096359;28;20267;-60
2022/12/18 00:08:19;;;;;;;;;;;;;;;14.11;60.82;102863.25;2095384;28;19974;-60
2022/12/18 00:09:21;;;;;;;;;;;;;;;14.11;61.41;102852.38;2099113;28;19928;-60
2022/12/18 00:10:25;;;;;;;;;;;;;;;14.11;63.55;102842.31;2096741;28;20009;-60
2022/12/18 00:11:30;;;;;;;;;;;;;;;14.10;62.74;102840.72;2096860;28;19929;-59
2022/12/18 00:12:31;;;;;;;;;;;;;;;14.09;61.62;102844.56;2096724;28;19933;-60
2022/12/18 00:13:34;;;;;;;;;;;;;;;14.10;62.29;102842.63;2097429;28;19928;-61
2022/12/18 00:14:36;;;;;;;;;;;;;;;14.08;60.98;102850.31;2097039;28;19928;-60
2022/12/18 00:15:39;;;;;;;;;;;;;;;14.08;61.14;102842.94;2097767;28;19928;-60
2022/12/18 00:16:43;;;;;;;;;;;;;;;14.08;62.62;102839.44;2095019;28;19932;-60
2022/12/18 00:17:45;;;;;;;;;;;;;;;14.08;63.28;102836.72;2092765;28;19936;-60
2022/12/18 00:18:47;;;;;;;;;;;;;;;14.07;60.88;102854.94;2091617;28;19928;-60
2022/12/18 00:19:50;;;;;;;;;;;;;;;14.07;59.02;102867.69;2096684;28;19928;-60
2022/12/18 00:20:52;;;;;;;;;;;;;;;14.06;63.02;102849.81;2099073;28;19939;-59
2022/12/18 00:21:54;;;;;;;;;;;;;;;14.07;63.37;102854.13;2097675;28;19932;-60
2022/12/18 00:22:56;;;;;;;;;;;;;;;14.06;63.49;102858.78;2096567;28;19928;-60
2022/12/18 00:23:59;;;;;;;;;;;;;;;14.05;62.01;102865.31;2096443;28;19928;-60
2022/12/18 00:25:00;;;;;;;;;;;;;;;14.06;63.06;102868.81;2095661;28;19929;-60
2022/12/18 00:26:05;;;;;;;;;;;;;;;14.07;64.12;102862.28;2097542;28;19985;-59
2022/12/18 00:27:08;;;;;;;;;;;;;;;14.05;63.70;102859.88;2097199;28;20657;-59
2022/12/18 00:28:10;;;;;;;;;;;;;;;14.04;64.23;102857.47;2098204;28;20419;-60
2022/12/18 00:29:14;;;;;;;;;;;;;;;14.04;64.07;102860.19;2095062;28;19932;-60
2022/12/18 00:30:17;;;;;;;;;;;;;;;14.04;64.19;102854.75;2096411;28;19928;-60
2022/12/18 00:31:21;;;;;;;;;;;;;;;14.03;64.30;102856.69;2097488;28;19974;-59
2022/12/18 00:32:22;;;;;;;;;;;;;;;14.04;63.83;102857.47;2087124;28;20442;-59
2022/12/18 00:33:25;;;;;;;;;;;;;;;14.03;64.24;102861.31;2089191;28;19925;-59
2022/12/18 00:34:27;;;;;;;;;;;;;;;14.02;64.43;102856.97;2094593;28;19930;-59
2022/12/18 00:35:29;;;;;;;;;;;;;;;14.02;64.43;102860.50;2096786;28;21652;-59
2022/12/18 00:36:33;;;;;;;;;;;;;;;14.01;63.20;102863.53;2086407;28;19951;-59
2022/12/18 00:37:34;;;;;;;;;;;;;;;14.00;62.28;102865.44;2089277;28;19924;-60
2022/12/18 00:38:37;;;;;;;;;;;;;;;13.99;62.29;102860.31;2096433;28;19928;-60
2022/12/18 00:39:39;;;;;;;;;;;;;;;13.99;62.52;102863.03;2096852;28;19924;-60
2022/12/18 00:40:41;;;;;;;;;;;;;;;13.98;63.85;102854.09;2097101;28;19935;-60
2022/12/18 00:43:05;;;;;;;;;;;;;;;13.98;63.85;102856.00;2096823;28;19928;-59
2022/12/18 00:44:10;;;;;;;;;;;;;;;13.98;63.87;102858.72;2097762;28;20874;-59
2022/12/18 00:45:13;;;;;;;;;;;;;;;13.98;63.92;102858.72;2097770;28;19936;-59
2022/12/18 00:46:14;;;;;;;;;;;;;;;13.97;63.46;102857.13;2097033;28;19935;-59
2022/12/18 00:47:17;;;;;;;;;;;;;;;13.97;62.78;102862.56;2097443;28;19937;-59
2022/12/18 00:48:19;;;;;;;;;;;;;;;13.96;61.23;102871.81;2097219;28;19928;-59
2022/12/18 00:49:21;;;;;;;;;;;;;;;13.96;63.02;102864.47;2088725;28;20039;-59
2022/12/18 00:50:24;;;;;;;;;;;;;;;13.95;63.99;102854.75;2088219;28;20439;-59
2022/12/18 00:51:27;;;;;;;;;;;;;;;13.96;62.08;102866.38;2097191;28;19925;-59
2022/12/18 00:52:29;;;;;;;;;;;;;;;13.94;62.09;102858.56;2096162;28;19984;-60
2022/12/18 00:53:32;;;;;;;;;;;;;;;13.94;61.54;102871.34;2097114;28;19977;-60
2022/12/18 00:54:33;;;;;;;;;;;;;;;13.92;63.11;102863.50;2096664;28;19927;-60
2022/12/18 00:55:37;;;;;;;;;;;;;;;13.94;63.71;102868.63;2088308;28;19928;-60
2022/12/18 00:56:39;;;;;;;;;;;;;;;13.92;64.12;102860.78;2088360;28;19929;-60
2022/12/18 00:57:51;;;;;;;;;;;;;;;13.93;63.87;102856.16;2096365;28;19990;-60
2022/12/18 00:58:54;;;;;;;;;;;;;;;13.92;64.56;102854.56;2098014;28;19932;-60
2022/12/18 00:59:57;;;;;;;;;;;;;;;13.92;62.73;102870.84;2096861;28;19963;-60
2022/12/18 01:00:58;;;;;;;;;;;;;;;13.92;62.57;102860.00;2095412;28;19928;-60
2022/12/18 01:02:01;;;;;;;;;;;;;;;13.91;63.45;102861.91;2097987;28;19940;-60
2022/12/18 01:03:03;;;;;;;;;;;;;;;13.92;63.85;102851.84;2096546;28;19933;-59
2022/12/18 01:04:06;;;;;;;;;;;;;;;13.91;64.57;102855.66;2095126;28;19973;-60
2022/12/18 01:05:08;;;;;;;;;;;;;;;13.91;64.59;102858.38;2097844;28;19951;-60
2022/12/18 01:06:12;;;;;;;;;;;;;;;13.91;64.28;102863.81;2086562;28;19932;-60
2022/12/18 01:07:14;;;;;;;;;;;;;;;13.89;63.72;102861.41;2088580;28;19924;-60
2022/12/18 01:08:16;;;;;;;;;;;;;;;13.90;64.05;102873.06;2089436;28;19924;-60
2022/12/18 01:09:18;;;;;;;;;;;;;;;13.89;63.22;102871.47;2095142;28;19936;-60
2022/12/18 01:10:20;;;;;;;;;;;;;;;13.88;63.63;102867.97;2097922;28;19935;-61
2022/12/18 01:11:22;;;;;;;;;;;;;;;13.89;63.58;102871.47;2088426;28;19929;-58
2022/12/18 01:12:25;;;;;;;;;;;;;;;13.88;62.65;102875.28;2088922;28;19935;-59
2022/12/18 01:13:27;;;;;;;;;;;;;;;13.88;63.67;102872.56;2096706;28;19933;-60
2022/12/18 01:14:30;;;;;;;;;;;;;;;13.87;64.69;102868.28;2098391;28;20396;-59
2022/12/18 01:15:33;;;;;;;;;;;;;;;13.87;65.01;102873.69;2094574;28;19940;-59
2022/12/18 01:16:35;;;;;;;;;;;;;;;13.86;63.62;102875.59;2098208;28;19935;-58
2022/12/18 01:17:38;;;;;;;;;;;;;;;13.86;64.85;102878.31;2098610;28;19932;-59
2022/12/18 01:18:41;;;;;;;;;;;;;;;13.85;64.69;102882.16;2098120;28;19928;-59
2022/12/18 01:19:43;;;;;;;;;;;;;;;13.86;64.02;102880.25;2098185;28;19932;-59
2022/12/18 01:20:45;;;;;;;;;;;;;;;13.86;64.59;102880.25;2098211;28;20023;-59
2022/12/18 01:21:47;;;;;;;;;;;;;;;13.84;64.04;102888.72;2097499;28;20654;-59
2022/12/18 01:22:50;;;;;;;;;;;;;;;13.84;64.62;102886.00;2088392;28;19943;-59
2022/12/18 01:23:52;;;;;;;;;;;;;;;13.84;64.61;102890.63;2089201;28;19929;-59
2022/12/18 01:24:55;;;;;;;;;;;;;;;13.82;63.97;102904.50;2096717;28;19935;-59
2022/12/18 01:25:57;;;;;;;;;;;;;;;13.82;64.01;102892.84;2098564;28;19936;-60
2022/12/18 01:27:00;;;;;;;;;;;;;;;13.81;64.26;102892.03;2098176;28;19927;-60
2022/12/18 01:28:02;;;;;;;;;;;;;;;13.82;64.51;102898.28;2097635;28;19929;-60
2022/12/18 01:29:07;;;;;;;;;;;;;;;13.81;63.92;102910.25;2098249;28;20367;-60
2022/12/18 01:30:10;;;;;;;;;;;;;;;13.80;64.69;102892.34;2088453;28;19929;-60
2022/12/18 01:31:14;;;;;;;;;;;;;;;13.79;64.27;102899.72;2089106;28;19928;-60
2022/12/18 01:32:16;;;;;;;;;;;;;;;13.79;63.51;102898.91;2097224;28;19928;-59
2022/12/18 01:33:18;;;;;;;;;;;;;;;13.79;64.46;102891.56;2096929;28;19928;-60
2022/12/18 01:34:20;;;;;;;;;;;;;;;13.79;63.93;102897.00;2097738;28;19929;-59
2022/12/18 01:35:22;;;;;;;;;;;;;;;13.78;64.11;102897.31;2097383;28;19935;-59
2022/12/18 01:36:25;;;;;;;;;;;;;;;13.78;61.62;102902.72;2097664;28;19935;-60
2022/12/18 01:37:27;;;;;;;;;;;;;;;13.77;61.01;102907.34;2097882;28;19973;-59
2022/12/18 01:38:29;;;;;;;;;;;;;;;13.78;61.36;102905.44;2097601;28;19983;-60
2022/12/18 01:39:32;;;;;;;;;;;;;;;13.75;61.30;102897.94;2098013;28;19929;-60
2022/12/18 01:40:34;;;;;;;;;;;;;;;13.76;60.05;102905.75;2098035;28;19944;-59
2022/12/18 01:42:54;;;;;;;;;;;;;;;13.75;62.53;102898.72;2091121;28;19932;-60
2022/12/18 01:43:57;;;;;;;;;;;;;;;13.75;63.42;102898.72;2098405;28;19928;-59
2022/12/18 01:45:04;;;;;;;;;;;;;;;13.74;64.09;102897.13;2098819;28;20384;-60
2022/12/18 01:46:08;;;;;;;;;;;;;;;13.75;63.69;102903.38;2091635;28;20050;-59
2022/12/18 01:47:15;;;;;;;;;;;;;;;13.76;64.78;102896.81;2091646;28;19932;-60
2022/12/18 01:48:16;;;;;;;;;;;;;;;13.76;65.14;102899.53;2098754;28;19928;-60
2022/12/18 01:49:19;;;;;;;;;;;;;;;13.75;64.40;102906.06;2097413;28;19928;-60
2022/12/18 01:50:22;;;;;;;;;;;;;;;13.75;64.16;102903.38;2088885;28;19955;-60
2022/12/18 01:51:26;;;;;;;;;;;;;;;13.74;64.56;102910.69;2089994;28;20422;-60
2022/12/18 01:52:29;;;;;;;;;;;;;;;13.75;64.13;102903.38;2096941;28;19928;-59
2022/12/18 01:53:31;;;;;;;;;;;;;;;13.74;63.78;102901.75;2094638;28;19940;-60
2022/12/18 01:54:33;;;;;;;;;;;;;;;13.74;64.83;102899.03;2096428;28;19936;-59
2022/12/18 01:55:38;;;;;;;;;;;;;;;13.73;64.39;102903.66;2097770;28;19928;-60
2022/12/18 01:56:39;;;;;;;;;;;;;;;13.73;63.60;102917.22;2097616;28;20291;-59
2022/12/18 01:57:42;;;;;;;;;;;;;;;13.73;63.41;102911.78;2098018;28;19928;-60
2022/12/18 01:58:48;;;;;;;;;;;;;;;13.72;64.08;102918.34;2087767;28;19933;-60
2022/12/18 01:59:53;;;;;;;;;;;;;;;13.72;64.45;102922.97;2089360;28;20388;-60
2022/12/18 02:00:55;;;;;;;;;;;;;;;13.72;64.67;102914.81;2088969;28;19925;-59
2022/12/18 02:01:59;;;;;;;;;;;;;;;13.72;64.00;102920.25;2091098;28;19967;-59
2022/12/18 02:03:03;;;;;;;;;;;;;;;13.71;63.31;102924.91;2090256;28;20400;-59
2022/12/18 02:04:20;;;;;;;;;;;;;;;13.71;64.23;102913.22;2090980;28;19935;-59
2022/12/18 02:05:26;;;;;;;;;;;;;;;13.72;64.50;102914.81;2090369;28;19972;-60
2022/12/18 02:06:34;;;;;;;;;;;;;;;13.70;65.16;102914.34;2085482;28;20710;-59
2022/12/18 02:07:42;;;;;;;;;;;;;;;13.70;63.65;102914.34;2076317;28;19929;-60
2022/12/18 02:08:52;;;;;;;;;;;;;;;13.70;64.66;102906.19;2077610;28;19933;-60
2022/12/18 02:09:57;;;;;;;;;;;;;;;13.69;64.78;102904.56;2092236;28;19933;-60
2022/12/18 02:11:05;;;;;;;;;;;;;;;13.68;64.52;102903.81;2098563;28;19929;-60
2022/12/18 02:12:13;;;;;;;;;;;;;;;13.68;63.74;102905.69;2096618;28;19928;-59
2022/12/18 02:13:20;;;;;;;;;;;;;;;13.68;64.94;102905.69;2099152;28;19928;-60
2022/12/18 02:14:26;;;;;;;;;;;;;;;13.68;64.73;102897.56;2098517;28;19924;-60
2022/12/18 02:15:35;;;;;;;;;;;;;;;13.67;63.64;102907.59;2092030;28;19976;-59
2022/12/18 02:16:40;;;;;;;;;;;;;;;13.66;63.21;102897.88;2086294;28;19967;-60
2022/12/18 02:17:49;;;;;;;;;;;;;;;13.66;64.28;102903.31;2091888;28;19928;-60
2022/12/18 02:18:55;;;;;;;;;;;;;;;13.66;63.44;102899.78;2090840;28;19939;-60
2022/12/18 02:20:05;;;;;;;;;;;;;;;13.66;61.98;102907.91;2091324;28;19935;-60
2022/12/18 02:21:12;;;;;;;;;;;;;;;13.65;61.07;102915.28;2087664;28;19929;-60
2022/12/18 02:22:21;;;;;;;;;;;;;;;13.65;61.87;102907.13;2090522;28;19936;-60
2022/12/18 02:23:33;;;;;;;;;;;;;;;13.65;63.35;102901.72;2098819;28;20358;-60
2022/12/18 02:24:40;;;;;;;;;;;;;;;13.65;64.33;102892.75;2098985;28;19928;-60
2022/12/18 02:26:06;;;;;;;;;;;;;;;13.65;64.44;102892.75;2098773;28;20357;-60
2022/12/18 02:27:10;;;;;;;;;;;;;;;13.64;63.20;102891.16;2099980;28;19935;-60
2022/12/18 02:28:13;;;;;;;;;;;;;;;13.64;63.12;102891.16;2090779;28;20023;-60
2022/12/18 02:29:17;;;;;;;;;;;;;;;13.64;62.42;102885.72;2081961;28;19928;-60
2022/12/18 02:30:20;;;;;;;;;;;;;;;13.63;62.70;102873.25;2082599;28;19959;-60
2022/12/18 02:31:24;;;;;;;;;;;;;;;13.63;61.82;102873.25;2082313;28;19936;-60
2022/12/18 02:32:27;;;;;;;;;;;;;;;13.62;61.63;102872.44;2082586;28;19929;-60
2022/12/18 02:33:31;;;;;;;;;;;;;;;13.63;62.39;102873.25;2081695;28;19929;-60
2022/12/18 02:34:36;;;;;;;;;;;;;;;13.63;63.24;102875.97;2090114;28;20418;-60
2022/12/18 02:35:41;;;;;;;;;;;;;;;13.63;63.29;102870.53;2090881;28;19928;-60
2022/12/18 02:36:44;;;;;;;;;;;;;;;13.61;64.23;102862.72;2082773;28;19940;-60
2022/12/18 02:37:47;;;;;;;;;;;;;;;13.62;64.46;102858.88;2085451;28;19948;-60
2022/12/18 02:38:50;;;;;;;;;;;;;;;13.62;63.37;102871.66;2082978;28;19991;-60
2022/12/18 02:39:55;;;;;;;;;;;;;;;13.61;63.71;102865.44;2088021;28;19935;-60
2022/12/18 02:40:56;;;;;;;;;;;;;;;13.61;63.19;102870.84;2089514;28;20418;-60
2022/12/18 02:42:02;;;;;;;;;;;;;;;13.62;62.24;102874.38;2083498;28;20395;-60
2022/12/18 02:43:06;;;;;;;;;;;;;;;13.61;61.96;102875.47;2086144;28;19928;-60
2022/12/18 02:44:10;;;;;;;;;;;;;;;13.61;62.80;102868.16;2075039;28;19975;-60
2022/12/18 02:45:12;;;;;;;;;;;;;;;13.62;63.16;102871.66;2077594;28;19936;-60
2022/12/18 02:46:26;;;;;;;;;;;;;;;13.62;61.63;102880.59;2091672;28;19976;-60
2022/12/18 02:47:32;;;;;;;;;;;;;;;13.62;60.20;102887.94;2087273;28;19936;-60
2022/12/18 02:48:34;;;;;;;;;;;;;;;13.62;60.22;102874.38;2091758;28;19959;-60
2022/12/18 02:49:40;;;;;;;;;;;;;;;13.62;60.70;102883.31;2089928;28;20007;-60
2022/12/18 02:50:48;;;;;;;;;;;;;;;13.63;60.33;102884.13;2082241;28;20379;-60
2022/12/18 02:51:53;;;;;;;;;;;;;;;13.64;58.57;102891.16;2082271;28;19933;-60
2022/12/18 02:53:01;;;;;;;;;;;;;;;13.63;58.04;102887.63;2082388;28;20107;-60
2022/12/18 02:54:07;;;;;;;;;;;;;;;13.65;59.00;102887.31;2093743;28;19978;-60
2022/12/18 02:55:16;;;;;;;;;;;;;;;13.65;58.41;102895.47;2086196;28;20358;-60
2022/12/18 02:56:26;;;;;;;;;;;;;;;13.66;59.06;102897.88;2084288;28;19929;-61
2022/12/18 02:57:34;;;;;;;;;;;;;;;13.67;59.02;102898.69;2083008;28;20607;-60
2022/12/18 02:58:41;;;;;;;;;;;;;;;13.68;58.00;102908.41;2083748;28;19929;-60
2022/12/18 02:59:55;;;;;;;;;;;;;;;13.68;57.81;102903.00;2082677;28;19929;-60
2022/12/18 03:00:59;;;;;;;;;;;;;;;13.69;57.80;102913.53;2088810;28;20441;-60
2022/12/18 03:02:07;;;;;;;;;;;;;;;13.70;60.78;102884.47;2084243;28;19943;-60
2022/12/18 03:03:11;;;;;;;;;;;;;;;13.72;59.95;102887.66;2084462;28;19972;-60
2022/12/18 03:04:17;;;;;;;;;;;;;;;13.72;61.42;102888.47;2082756;28;20452;-60
2022/12/18 03:05:21;;;;;;;;;;;;;;;13.73;60.34;102886.56;2090390;28;19939;-60
2022/12/18 03:06:26;;;;;;;;;;;;;;;13.74;61.94;102882.75;2097756;28;19928;-63
2022/12/18 03:07:33;;;;;;;;;;;;;;;13.74;62.08;102883.53;2092273;28;20405;-63
2022/12/18 03:08:39;;;;;;;;;;;;;;;13.75;62.15;102889.78;2091510;28;19928;-63
2022/12/18 03:09:42;;;;;;;;;;;;;;;13.75;62.03;102893.28;2089424;28;19924;-63
2022/12/18 03:10:50;;;;;;;;;;;;;;;13.76;63.35;102885.94;2084289;28;19929;-63
2022/12/18 03:13:20;;;;;;;;;;;;;;;13.76;63.51;102878.63;2097569;28;19936;-63
2022/12/18 03:14:23;;;;;;;;;;;;;;;13.77;63.74;102877.50;2092878;28;19928;-63
2022/12/18 03:15:30;;;;;;;;;;;;;;;13.79;63.87;102882.59;2092332;28;20396;-63
2022/12/18 03:16:41;;;;;;;;;;;;;;;13.78;64.48;102876.38;2085970;28;19932;-63
2022/12/18 03:17:47;;;;;;;;;;;;;;;13.79;64.25;102883.41;2089144;28;19929;-62
2022/12/18 03:18:52;;;;;;;;;;;;;;;13.79;64.72;102871.75;2098924;28;20749;-63
2022/12/18 03:19:56;;;;;;;;;;;;;;;13.79;64.49;102874.47;2097218;28;20410;-63
2022/12/18 03:21:00;;;;;;;;;;;;;;;13.79;64.50;102877.19;2092221;28;19974;-63
2022/12/18 03:22:04;;;;;;;;;;;;;;;13.80;64.72;102868.72;2092396;28;19968;-62
2022/12/18 03:23:17;;;;;;;;;;;;;;;13.81;65.38;102875.75;2090730;28;19929;-63
2022/12/18 03:24:25;;;;;;;;;;;;;;;13.80;65.20;102868.72;2077493;28;19925;-63
2022/12/18 03:25:27;;;;;;;;;;;;;;;13.81;63.27;102877.66;2077286;28;19960;-64
2022/12/18 03:26:30;;;;;;;;;;;;;;;13.81;62.91;102883.09;2093125;28;19929;-63
2022/12/18 03:27:37;;;;;;;;;;;;;;;13.81;62.30;102878.44;2091981;28;19978;-64
2022/12/18 03:28:46;;;;;;;;;;;;;;;13.82;61.93;102876.53;2093142;28;19996;-63
2022/12/18 03:29:51;;;;;;;;;;;;;;;13.81;61.81;102874.97;2098881;28;19991;-62
2022/12/18 03:31:00;;;;;;;;;;;;;;;13.81;61.84;102877.66;2089281;28;20304;-63
2022/12/18 03:32:05;;;;;;;;;;;;;;;13.81;63.23;102874.97;2086410;28;19955;-63
2022/12/18 03:33:09;;;;;;;;;;;;;;;13.81;64.26;102870.31;2092566;28;19929;-63
2022/12/18 03:34:16;;;;;;;;;;;;;;;13.82;64.65;102860.25;2096492;28;19939;-63
2022/12/18 03:35:23;;;;;;;;;;;;;;;13.82;64.32;102862.97;2089113;28;19936;-63
2022/12/18 03:36:26;;;;;;;;;;;;;;;13.81;64.57;102864.09;2081726;28;19936;-63
2022/12/18 03:37:29;;;;;;;;;;;;;;;13.81;64.74;102870.31;2089775;28;19932;-63
2022/12/18 03:38:31;;;;;;;;;;;;;;;13.81;64.50;102866.81;2091882;28;19928;-63
2022/12/18 03:39:34;;;;;;;;;;;;;;;13.81;64.72;102872.25;2091127;28;19928;-63
2022/12/18 03:40:40;;;;;;;;;;;;;;;13.81;64.62;102874.97;2098027;28;20348;-65
2022/12/18 03:41:45;;;;;;;;;;;;;;;13.80;64.77;102871.44;2089837;28;20380;-64
2022/12/18 03:43:03;;;;;;;;;;;;;;;13.80;64.88;102878.75;2084419;28;19928;-64
2022/12/18 03:44:12;;;;;;;;;;;;;;;13.80;65.19;102876.88;2084686;28;19958;-64
2022/12/18 03:45:20;;;;;;;;;;;;;;;13.80;64.76;102881.47;2091316;28;19967;-63
2022/12/18 03:46:27;;;;;;;;;;;;;;;13.79;64.51;102878.00;2091285;28;19928;-63
2022/12/18 03:47:32;;;;;;;;;;;;;;;13.79;65.16;102882.59;2084739;28;19976;-63
2022/12/18 03:48:39;;;;;;;;;;;;;;;13.78;64.47;102875.59;2091981;28;19928;-62
2022/12/18 03:49:48;;;;;;;;;;;;;;;13.78;63.67;102881.00;2091068;28;19958;-63
2022/12/18 03:50:56;;;;;;;;;;;;;;;13.78;63.81;102884.50;2074419;28;19940;-62
2022/12/18 03:52:02;;;;;;;;;;;;;;;13.78;64.31;102881.00;2076045;28;19933;-63
2022/12/18 03:53:11;;;;;;;;;;;;;;;13.77;64.27;102873.97;2083940;28;19952;-63
2022/12/18 03:54:14;;;;;;;;;;;;;;;13.76;64.33;102877.81;2075121;28;19929;-62
2022/12/18 03:55:25;;;;;;;;;;;;;;;13.76;63.90;102883.22;2083605;28;19941;-62
2022/12/18 03:56:36;;;;;;;;;;;;;;;13.74;63.73;102882.75;2086330;28;19936;-63
2022/12/18 03:57:41;;;;;;;;;;;;;;;13.74;63.20;102880.81;2083057;28;20012;-62
2022/12/18 03:58:44;;;;;;;;;;;;;;;13.73;62.52;102878.44;2087784;28;19936;-62
2022/12/18 03:59:59;;;;;;;;;;;;;;;13.72;62.83;102876.81;2097933;28;19928;-61
2022/12/18 04:01:07;;;;;;;;;;;;;;;13.72;62.72;102882.25;2098597;28;20744;-62
2022/12/18 04:02:10;;;;;;;;;;;;;;;13.69;62.39;102882.88;2089030;28;20031;-63
2022/12/18 04:03:14;;;;;;;;;;;;;;;13.69;62.93;102878.25;2081819;28;19929;-63
2022/12/18 04:04:21;;;;;;;;;;;;;;;13.68;63.24;102881.28;2090111;28;19925;-63
2022/12/18 04:05:26;;;;;;;;;;;;;;;13.67;63.08;102882.41;2090201;28;19936;-62
2022/12/18 04:06:29;;;;;;;;;;;;;;;13.67;63.46;102880.47;2090269;28;19928;-65
2022/12/18 04:07:33;;;;;;;;;;;;;;;13.67;63.21;102890.53;2090615;28;20025;-62
2022/12/18 04:08:34;;;;;;;;;;;;;;;13.66;62.99;102878.06;2090091;28;20472;-62
2022/12/18 04:09:42;;;;;;;;;;;;;;;13.67;63.39;102887.81;2083181;28;19929;-62
2022/12/18 04:10:44;;;;;;;;;;;;;;;13.66;63.52;102888.91;2089390;28;19936;-63
2022/12/18 04:11:47;;;;;;;;;;;;;;;13.66;62.74;102888.91;2090887;28;19970;-62
2022/12/18 04:12:50;;;;;;;;;;;;;;;13.65;63.20;102890.03;2083400;28;19933;-62
2022/12/18 04:13:57;;;;;;;;;;;;;;;13.63;62.88;102890.34;2083045;28;19995;-64
2022/12/18 04:15:00;;;;;;;;;;;;;;;13.63;63.06;102884.94;2084290;28;19932;-62
2022/12/18 04:16:03;;;;;;;;;;;;;;;13.62;63.22;102898.81;2089808;28;19932;-64
2022/12/18 04:17:05;;;;;;;;;;;;;;;13.63;63.04;102894.97;2089404;28;19940;-61
2022/12/18 04:18:08;;;;;;;;;;;;;;;13.61;62.84;102887.13;2081243;28;20439;-61
2022/12/18 04:19:14;;;;;;;;;;;;;;;13.62;63.78;102877.09;2083280;28;20377;-62
2022/12/18 04:20:18;;;;;;;;;;;;;;;13.63;63.54;102884.13;2081531;28;19929;-62
2022/12/18 04:21:22;;;;;;;;;;;;;;;13.62;64.02;102877.09;2082550;28;19936;-63
2022/12/18 04:22:25;;;;;;;;;;;;;;;13.63;63.51;102889.53;2088956;28;19928;-63
2022/12/18 04:23:32;;;;;;;;;;;;;;;13.62;62.21;102890.66;2088862;28;19928;-62
2022/12/18 04:24:35;;;;;;;;;;;;;;;13.63;62.15;102884.13;2082380;28;20040;-62
2022/12/18 04:25:43;;;;;;;;;;;;;;;13.62;61.16;102887.94;2083618;28;20529;-63
2022/12/18 04:26:51;;;;;;;;;;;;;;;13.63;62.08;102886.81;2083045;28;19929;-63
2022/12/18 04:27:58;;;;;;;;;;;;;;;13.63;62.83;102875.97;2082599;28;20020;-63
2022/12/18 04:29:00;;;;;;;;;;;;;;;13.63;62.61;102875.97;2089113;28;20407;-63
2022/12/18 04:30:05;;;;;;;;;;;;;;;13.64;62.33;102883.03;2089150;28;19958;-63
2022/12/18 04:31:08;;;;;;;;;;;;;;;13.65;62.99;102882.72;2074803;28;19936;-63
2022/12/18 04:32:09;;;;;;;;;;;;;;;13.65;63.48;102876.47;2081549;28;20481;-62
2022/12/18 04:33:14;;;;;;;;;;;;;;;13.65;63.18;102871.03;2089917;28;20395;-63
2022/12/18 04:34:15;;;;;;;;;;;;;;;13.65;62.91;102879.19;2081429;28;19998;-62
2022/12/18 04:35:24;;;;;;;;;;;;;;;13.65;62.47;102876.47;2081218;28;20502;-63
2022/12/18 04:36:26;;;;;;;;;;;;;;;13.65;63.06;102871.84;2090222;28;20020;-63
2022/12/18 04:37:28;;;;;;;;;;;;;;;13.66;62.85;102875.34;2090101;28;19955;-62
2022/12/18 04:38:31;;;;;;;;;;;;;;;13.66;62.32;102878.88;2091023;28;20433;-62
2022/12/18 04:39:39;;;;;;;;;;;;;;;13.65;62.53;102877.28;2089937;28;20005;-62
2022/12/18 04:40:49;;;;;;;;;;;;;;;13.66;62.06;102883.50;2075424;28;19987;-63
2022/12/18 04:41:57;;;;;;;;;;;;;;;13.66;62.32;102886.19;2076281;28;19977;-62
2022/12/18 04:42:59;;;;;;;;;;;;;;;13.66;61.82;102884.31;2088558;28;19935;-63
2022/12/18 04:44:01;;;;;;;;;;;;;;;13.66;62.39;102883.50;2097384;28;19928;-63
2022/12/18 04:45:05;;;;;;;;;;;;;;;13.65;62.09;102890.03;2097950;28;20804;-63
2022/12/18 04:46:08;;;;;;;;;;;;;;;13.64;61.91;102889.22;2097635;28;19957;-63
2022/12/18 04:47:10;;;;;;;;;;;;;;;13.65;61.86;102893.56;2098578;28;20862;-63
2022/12/18 04:48:12;;;;;;;;;;;;;;;13.64;62.03;102897.38;2097252;28;20242;-62
2022/12/18 04:49:14;;;;;;;;;;;;;;;13.65;62.19;102900.91;2098412;28;19929;-62
2022/12/18 04:50:16;;;;;;;;;;;;;;;13.65;62.11;102893.56;2096287;28;19928;-62
2022/12/18 04:51:20;;;;;;;;;;;;;;;13.65;62.22;102890.03;2081156;28;19959;-62
2022/12/18 04:52:27;;;;;;;;;;;;;;;13.65;61.99;102887.31;2081927;28;19929;-63
2022/12/18 04:53:29;;;;;;;;;;;;;;;13.65;62.13;102892.75;2096951;28;19928;-63
2022/12/18 04:54:31;;;;;;;;;;;;;;;13.65;61.97;102892.75;2093136;28;20350;-63
2022/12/18 04:55:34;;;;;;;;;;;;;;;13.65;61.83;102890.03;2092115;28;19928;-63
2022/12/18 04:56:35;;;;;;;;;;;;;;;13.64;62.19;102889.22;2098888;28;19935;-62
2022/12/18 04:57:38;;;;;;;;;;;;;;;13.64;61.96;102880.31;2098135;28;19928;-63
2022/12/18 04:58:40;;;;;;;;;;;;;;;13.65;61.83;102887.31;2097644;28;19939;-63
2022/12/18 04:59:43;;;;;;;;;;;;;;;13.65;61.03;102887.31;2098077;28;19985;-62
2022/12/18 05:00:46;;;;;;;;;;;;;;;13.64;60.99;102891.94;2098045;28;20693;-63
2022/12/18 05:01:48;;;;;;;;;;;;;;;13.64;61.48;102896.59;2097652;28;19928;-62
2022/12/18 05:02:50;;;;;;;;;;;;;;;13.64;61.26;102900.09;2096979;28;20522;-62
2022/12/18 05:03:52;;;;;;;;;;;;;;;13.64;61.25;102905.50;2096349;28;19932;-62
2022/12/18 05:04:54;;;;;;;;;;;;;;;13.65;61.25;102898.19;2097933;28;19939;-63
2022/12/18 05:05:57;;;;;;;;;;;;;;;13.65;61.14;102898.19;2097618;28;19928;-62
2022/12/18 05:06:58;;;;;;;;;;;;;;;13.64;61.02;102902.03;2095773;28;19935;-63
2022/12/18 05:08:01;;;;;;;;;;;;;;;13.65;60.92;102898.19;2097926;28;19932;-62
2022/12/18 05:09:02;;;;;;;;;;;;;;;13.64;60.98;102904.75;2097789;28;19929;-63
2022/12/18 05:10:08;;;;;;;;;;;;;;;13.64;60.60;102912.88;2096678;28;19928;-63
2022/12/18 05:11:11;;;;;;;;;;;;;;;13.64;61.03;102910.94;2097404;28;19936;-61
2022/12/18 05:12:14;;;;;;;;;;;;;;;13.65;60.94;102903.63;2096616;28;19935;-62
2022/12/18 05:13:15;;;;;;;;;;;;;;;13.65;61.26;102903.63;2095683;28;19939;-62
2022/12/18 05:14:18;;;;;;;;;;;;;;;13.64;60.82;102900.09;2098130;28;19924;-62
2022/12/18 05:15:19;;;;;;;;;;;;;;;13.64;61.27;102907.44;2097764;28;19981;-63
2022/12/18 05:16:23;;;;;;;;;;;;;;;13.64;61.15;102902.81;2098205;28;19935;-62
2022/12/18 05:17:25;;;;;;;;;;;;;;;13.64;61.30;102899.31;2098595;28;20528;-63
2022/12/18 05:18:27;;;;;;;;;;;;;;;13.65;61.29;102898.19;2097688;28;19929;-62
2022/12/18 05:19:29;;;;;;;;;;;;;;;13.66;61.35;102902.50;2097760;28;19928;-62
2022/12/18 05:20:32;;;;;;;;;;;;;;;13.66;61.52;102894.34;2097688;28;19932;-62
2022/12/18 05:21:33;;;;;;;;;;;;;;;13.65;61.57;102895.47;2096686;28;19935;-62
2022/12/18 05:22:36;;;;;;;;;;;;;;;13.66;61.52;102895.16;2095262;28;19928;-62
2022/12/18 05:23:37;;;;;;;;;;;;;;;13.66;61.32;102899.78;2097571;28;19928;-63
2022/12/18 05:24:40;;;;;;;;;;;;;;;13.65;61.19;102903.63;2096708;28;19969;-63
2022/12/18 05:25:42;;;;;;;;;;;;;;;13.66;61.36;102894.34;2096749;28;19928;-63
2022/12/18 05:26:45;;;;;;;;;;;;;;;13.66;60.88;102902.50;2098063;28;19963;-63
2022/12/18 05:27:46;;;;;;;;;;;;;;;13.66;60.64;102902.50;2097837;28;19928;-63
2022/12/18 05:28:49;;;;;;;;;;;;;;;13.65;60.07;102893.56;2098599;28;20387;-64
2022/12/18 05:29:51;;;;;;;;;;;;;;;13.65;60.30;102912.56;2096773;28;19932;-62
2022/12/18 05:30:54;;;;;;;;;;;;;;;13.67;60.70;102909.53;2096530;28;19935;-64
2022/12/18 05:31:57;;;;;;;;;;;;;;;13.66;60.87;102907.91;2096534;28;19929;-63
2022/12/18 05:32:59;;;;;;;;;;;;;;;13.66;60.69;102921.50;2096314;28;19935;-62
2022/12/18 05:34:01;;;;;;;;;;;;;;;13.67;60.34;102920.41;2097254;28;19944;-63